sensor_id;sensor_type;location;lat;lon;timestamp;temperature;humidity
59660;DHT22;45534;52.690;6.268;2022-12-24T00:00:24;9.10;99.90
59660;DHT22;45534;52.690;6.268;2022-12-24T00:02:50;9.00;99.90
59660;DHT22;45534;52.690;6.268;2022-12-24T00:05:16;9.00;99.90
59660;DHT22;45534;52.690;6.268;2022-12-24T00:07:42;9.00;99.90
59660;DHT22;45534;52.690;6.268;2022-12-24T00:10:08;9.00;99.90
59660;DHT22;45534;52.690;6.268;2022-12-24T00:12:34;9.00;99.90
59660;DHT22;45534;52.690;6.268;2022-12-24T00:15:00;9.00;99.90
59660;DHT22;45534;52.690;6.268;2022-12-24T00:17:26;8.90;99.90
59660;DHT22;45534;52.690;6.268;2022-12-24T00:19:51;8.90;99.90
59660;DHT22;45534;52.690;6.268;2022-12-24T00:22:17;8.90;99.90
59660;DHT22;45534;52.690;6.268;2022-12-24T00:24:42;8.90;99.90
59660;DHT22;45534;52.690;6.268;2022-12-24T00:27:08;8.90;99.90
59660;DHT22;45534;52.690;6.268;2022-12-24T00:29:34;8.90;99.90
59660;DHT22;45534;52.690;6.268;2022-12-24T00:31:59;8.90;99.90
59660;DHT22;45534;52.690;6.268;2022-12-24T00:34:25;8.90;99.90
59660;DHT22;45534;52.690;6.268;2022-12-24T00:36:51;8.90;99.90
59660;DHT22;45534;52.690;6.268;2022-12-24T00:39:17;8.90;99.90
59660;DHT22;45534;52.690;6.268;2022-12-24T00:41:43;8.90;99.90
59660;DHT22;45534;52.690;6.268;2022-12-24T00:44:09;8.90;99.90
59660;DHT22;45534;52.690;6.268;2022-12-24T00:46:38;8.90;99.90
59660;DHT22;45534;52.690;6.268;2022-12-24T00:49:04;8.90;99.90
59660;DHT22;45534;52.690;6.268;2022-12-24T00:51:31;8.90;99.90
59660;DHT22;45534;52.690;6.268;2022-12-24T00:53:57;8.90;99.90
59660;DHT22;45534;52.690;6.268;2022-12-24T00:56:23;8.90;99.90
59660;DHT22;45534;52.690;6.268;2022-12-24T00:58:48;8.90;99.90
59660;DHT22;45534;52.690;6.268;2022-12-24T01:01:14;8.90;99.90
59660;DHT22;45534;52.690;6.268;2022-12-24T01:03:40;9.00;99.90
59660;DHT22;45534;52.690;6.268;2022-12-24T01:06:14;9.00;99.90
59660;DHT22;45534;52.690;6.268;2022-12-24T01:08:41;9.00;99.90
59660;DHT22;45534;52.690;6.268;2022-12-24T01:11:08;9.00;99.90
59660;DHT22;45534;52.690;6.268;2022-12-24T01:13:34;9.00;99.90
59660;DHT22;45534;52.690;6.268;2022-12-24T01:16:00;9.00;99.90
59660;DHT22;45534;52.690;6.268;2022-12-24T01:18:26;9.00;99.90
59660;DHT22;45534;52.690;6.268;2022-12-24T01:21:00;9.00;99.90
59660;DHT22;45534;52.690;6.268;2022-12-24T01:23:27;9.00;99.90
59660;DHT22;45534;52.690;6.268;2022-12-24T01:25:53;9.00;99.90
59660;DHT22;45534;52.690;6.268;2022-12-24T01:28:20;9.00;99.90
59660;DHT22;45534;52.690;6.268;2022-12-24T01:30:46;9.00;99.90
59660;DHT22;45534;52.690;6.268;2022-12-24T01:33:12;8.90;99.90
59660;DHT22;45534;52.690;6.268;2022-12-24T01:35:40;8.90;99.90
59660;DHT22;45534;52.690;6.268;2022-12-24T01:38:06;8.90;99.90
59660;DHT22;45534;52.690;6.268;2022-12-24T01:40:31;8.80;99.90
59660;DHT22;45534;52.690;6.268;2022-12-24T01:43:18;8.80;99.90
59660;DHT22;45534;52.690;6.268;2022-12-24T01:46:03;8.80;99.90
59660;DHT22;45534;52.690;6.268;2022-12-24T01:48:39;8.70;99.90
59660;DHT22;45534;52.690;6.268;2022-12-24T01:53:57;8.70;99.90
59660;DHT22;45534;52.690;6.268;2022-12-24T01:56:25;8.80;99.90
59660;DHT22;45534;52.690;6.268;2022-12-24T01:58:54;8.70;99.90
59660;DHT22;45534;52.690;6.268;2022-12-24T02:01:22;8.70;99.90
59660;DHT22;45534;52.690;6.268;2022-12-24T02:03:48;8.80;99.90
59660;DHT22;45534;52.690;6.268;2022-12-24T02:06:16;8.80;99.90
59660;DHT22;45534;52.690;6.268;2022-12-24T02:08:42;8.80;99.90
59660;DHT22;45534;52.690;6.268;2022-12-24T02:11:17;8.80;99.90
59660;DHT22;45534;52.690;6.268;2022-12-24T02:13:46;8.90;99.90
59660;DHT22;45534;52.690;6.268;2022-12-24T02:27:24;9.10;99.90
59660;DHT22;45534;52.690;6.268;2022-12-24T02:38:23;9.10;99.90
59660;DHT22;45534;52.690;6.268;2022-12-24T02:41:06;9.10;99.90
59660;DHT22;45534;52.690;6.268;2022-12-24T02:43:35;9.10;99.90
59660;DHT22;45534;52.690;6.268;2022-12-24T02:46:13;9.10;99.90
59660;DHT22;45534;52.690;6.268;2022-12-24T02:48:41;9.10;99.90
59660;DHT22;45534;52.690;6.268;2022-12-24T02:51:10;9.10;99.90
59660;DHT22;45534;52.690;6.268;2022-12-24T02:53:37;9.10;99.90
59660;DHT22;45534;52.690;6.268;2022-12-24T03:02:05;9.10;99.90
59660;DHT22;45534;52.690;6.268;2022-12-24T03:09:55;9.10;99.90
59660;DHT22;45534;52.690;6.268;2022-12-24T03:12:40;9.10;99.90
59660;DHT22;45534;52.690;6.268;2022-12-24T03:15:08;9.00;99.90
59660;DHT22;45534;52.690;6.268;2022-12-24T03:17:36;9.00;99.90
59660;DHT22;45534;52.690;6.268;2022-12-24T03:20:04;9.00;99.90
59660;DHT22;45534;52.690;6.268;2022-12-24T03:22:32;9.00;99.90
59660;DHT22;45534;52.690;6.268;2022-12-24T03:24:59;9.00;99.90
59660;DHT22;45534;52.690;6.268;2022-12-24T03:27:28;9.00;99.90
59660;DHT22;45534;52.690;6.268;2022-12-24T03:29:55;9.00;99.90
59660;DHT22;45534;52.690;6.268;2022-12-24T03:32:27;9.00;99.90
59660;DHT22;45534;52.690;6.268;2022-12-24T03:34:54;9.00;99.90
59660;DHT22;45534;52.690;6.268;2022-12-24T03:37:20;9.00;99.90
59660;DHT22;45534;52.690;6.268;2022-12-24T03:39:45;8.90;99.90
59660;DHT22;45534;52.690;6.268;2022-12-24T03:42:11;9.00;99.90
59660;DHT22;45534;52.690;6.268;2022-12-24T03:44:37;8.90;99.90
59660;DHT22;45534;52.690;6.268;2022-12-24T03:47:03;9.00;99.90
59660;DHT22;45534;52.690;6.268;2022-12-24T03:49:28;8.90;99.90
59660;DHT22;45534;52.690;6.268;2022-12-24T03:51:54;9.00;99.90
59660;DHT22;45534;52.690;6.268;2022-12-24T03:54:20;8.90;99.90
59660;DHT22;45534;52.690;6.268;2022-12-24T03:56:45;8.90;99.90
59660;DHT22;45534;52.690;6.268;2022-12-24T03:59:11;9.00;99.90
59660;DHT22;45534;52.690;6.268;2022-12-24T04:01:37;9.00;99.90
59660;DHT22;45534;52.690;6.268;2022-12-24T04:04:02;9.00;99.90
59660;DHT22;45534;52.690;6.268;2022-12-24T04:06:28;9.00;99.90
59660;DHT22;45534;52.690;6.268;2022-12-24T04:08:54;9.00;99.90
59660;DHT22;45534;52.690;6.268;2022-12-24T04:11:19;9.00;99.90
59660;DHT22;45534;52.690;6.268;2022-12-24T04:13:45;9.00;99.90
59660;DHT22;45534;52.690;6.268;2022-12-24T04:16:13;9.00;99.90
59660;DHT22;45534;52.690;6.268;2022-12-24T04:18:40;9.00;99.90
59660;DHT22;45534;52.690;6.268;2022-12-24T04:21:07;9.00;99.90
59660;DHT22;45534;52.690;6.268;2022-12-24T04:23:34;9.00;99.90
59660;DHT22;45534;52.690;6.268;2022-12-24T04:26:02;9.00;99.90
59660;DHT22;45534;52.690;6.268;2022-12-24T04:28:29;9.00;99.90
59660;DHT22;45534;52.690;6.268;2022-12-24T04:30:59;9.10;99.90
59660;DHT22;45534;52.690;6.268;2022-12-24T04:33:25;9.10;99.90
59660;DHT22;45534;52.690;6.268;2022-12-24T04:35:50;9.10;99.90
59660;DHT22;45534;52.690;6.268;2022-12-24T04:38:16;9.10;99.90
59660;DHT22;45534;52.690;6.268;2022-12-24T04:40:42;9.10;99.90
59660;DHT22;45534;52.690;6.268;2022-12-24T04:43:08;9.10;99.90
59660;DHT22;45534;52.690;6.268;2022-12-24T04:45:33;9.10;99.90
59660;DHT22;45534;52.690;6.268;2022-12-24T04:47:59;9.10;99.90
59660;DHT22;45534;52.690;6.268;2022-12-24T04:50:25;9.10;99.90
59660;DHT22;45534;52.690;6.268;2022-12-24T04:52:51;9.10;99.90
59660;DHT22;45534;52.690;6.268;2022-12-24T04:55:16;9.10;99.90
59660;DHT22;45534;52.690;6.268;2022-12-24T04:57:42;9.10;99.90
59660;DHT22;45534;52.690;6.268;2022-12-24T05:00:08;9.10;99.90
59660;DHT22;45534;52.690;6.268;2022-12-24T05:02:34;9.10;99.90
59660;DHT22;45534;52.690;6.268;2022-12-24T05:05:00;9.10;99.90
59660;DHT22;45534;52.690;6.268;2022-12-24T05:07:26;9.10;99.90
59660;DHT22;45534;52.690;6.268;2022-12-24T05:09:51;9.10;99.90
59660;DHT22;45534;52.690;6.268;2022-12-24T05:12:17;9.00;99.90
59660;DHT22;45534;52.690;6.268;2022-12-24T05:14:43;9.00;99.90
59660;DHT22;45534;52.690;6.268;2022-12-24T05:17:08;9.00;99.90
59660;DHT22;45534;52.690;6.268;2022-12-24T05:19:34;9.00;99.90
59660;DHT22;45534;52.690;6.268;2022-12-24T05:22:00;9.00;99.90
59660;DHT22;45534;52.690;6.268;2022-12-24T05:24:44;9.00;99.90
59660;DHT22;45534;52.690;6.268;2022-12-24T05:27:28;8.90;99.90
59660;DHT22;45534;52.690;6.268;2022-12-24T05:29:54;8.90;99.90
59660;DHT22;45534;52.690;6.268;2022-12-24T05:32:20;8.90;99.90
59660;DHT22;45534;52.690;6.268;2022-12-24T05:34:46;8.90;99.90
59660;DHT22;45534;52.690;6.268;2022-12-24T05:37:11;8.90;99.90
59660;DHT22;45534;52.690;6.268;2022-12-24T05:39:37;8.90;99.90
59660;DHT22;45534;52.690;6.268;2022-12-24T05:42:03;8.90;99.90
59660;DHT22;45534;52.690;6.268;2022-12-24T05:44:28;8.90;99.90
59660;DHT22;45534;52.690;6.268;2022-12-24T05:46:54;8.90;99.90
59660;DHT22;45534;52.690;6.268;2022-12-24T05:49:20;8.80;99.90
59660;DHT22;45534;52.690;6.268;2022-12-24T05:51:45;8.80;99.90
59660;DHT22;45534;52.690;6.268;2022-12-24T05:54:11;8.80;99.90
59660;DHT22;45534;52.690;6.268;2022-12-24T05:56:37;8.70;99.90
59660;DHT22;45534;52.690;6.268;2022-12-24T05:59:02;8.70;99.90
59660;DHT22;45534;52.690;6.268;2022-12-24T06:01:28;8.60;99.90
59660;DHT22;45534;52.690;6.268;2022-12-24T06:03:55;8.60;99.90
59660;DHT22;45534;52.690;6.268;2022-12-24T06:06:25;8.60;99.90
59660;DHT22;45534;52.690;6.268;2022-12-24T06:08:52;8.60;99.90
59660;DHT22;45534;52.690;6.268;2022-12-24T06:11:21;8.50;99.90
59660;DHT22;45534;52.690;6.268;2022-12-24T06:13:47;8.50;99.90
59660;DHT22;45534;52.690;6.268;2022-12-24T06:16:15;8.50;99.90
59660;DHT22;45534;52.690;6.268;2022-12-24T06:18:41;8.50;99.90
59660;DHT22;45534;52.690;6.268;2022-12-24T06:21:08;8.50;99.90
59660;DHT22;45534;52.690;6.268;2022-12-24T06:23:36;8.50;99.90
59660;DHT22;45534;52.690;6.268;2022-12-24T06:26:03;8.50;99.90
59660;DHT22;45534;52.690;6.268;2022-12-24T06:28:31;8.50;99.90
59660;DHT22;45534;52.690;6.268;2022-12-24T06:30:57;8.40;99.90
59660;DHT22;45534;52.690;6.268;2022-12-24T06:33:22;8.40;99.90
59660;DHT22;45534;52.690;6.268;2022-12-24T06:35:48;8.40;99.90
59660;DHT22;45534;52.690;6.268;2022-12-24T06:38:14;8.40;99.90
59660;DHT22;45534;52.690;6.268;2022-12-24T06:40:42;8.40;99.90
59660;DHT22;45534;52.690;6.268;2022-12-24T06:43:09;8.40;99.90
59660;DHT22;45534;52.690;6.268;2022-12-24T06:45:34;8.40;99.90
59660;DHT22;45534;52.690;6.268;2022-12-24T06:48:00;8.30;99.90
59660;DHT22;45534;52.690;6.268;2022-12-24T06:50:27;8.30;99.90
59660;DHT22;45534;52.690;6.268;2022-12-24T06:52:52;8.30;99.90
59660;DHT22;45534;52.690;6.268;2022-12-24T06:55:18;8.30;99.90
59660;DHT22;45534;52.690;6.268;2022-12-24T06:57:44;8.30;99.90
59660;DHT22;45534;52.690;6.268;2022-12-24T07:00:11;8.30;99.90
59660;DHT22;45534;52.690;6.268;2022-12-24T07:02:43;8.30;99.90
59660;DHT22;45534;52.690;6.268;2022-12-24T07:05:11;8.30;99.90
59660;DHT22;45534;52.690;6.268;2022-12-24T07:07:41;8.30;99.90
59660;DHT22;45534;52.690;6.268;2022-12-24T07:10:10;8.40;99.90
59660;DHT22;45534;52.690;6.268;2022-12-24T07:12:35;8.40;99.90
59660;DHT22;45534;52.690;6.268;2022-12-24T07:15:01;8.40;99.90
59660;DHT22;45534;52.690;6.268;2022-12-24T07:17:27;8.50;99.90
59660;DHT22;45534;52.690;6.268;2022-12-24T07:19:52;8.50;99.90
59660;DHT22;45534;52.690;6.268;2022-12-24T07:22:19;8.50;99.90
59660;DHT22;45534;52.690;6.268;2022-12-24T07:24:44;8.60;99.90
59660;DHT22;45534;52.690;6.268;2022-12-24T07:27:10;8.60;99.90
59660;DHT22;45534;52.690;6.268;2022-12-24T07:29:36;8.60;99.90
59660;DHT22;45534;52.690;6.268;2022-12-24T07:32:01;8.60;99.90
59660;DHT22;45534;52.690;6.268;2022-12-24T07:34:27;8.60;99.90
59660;DHT22;45534;52.690;6.268;2022-12-24T07:36:52;8.70;99.90
59660;DHT22;45534;52.690;6.268;2022-12-24T07:39:18;8.70;99.90
59660;DHT22;45534;52.690;6.268;2022-12-24T07:41:44;8.70;99.90
59660;DHT22;45534;52.690;6.268;2022-12-24T07:44:13;8.80;99.90
59660;DHT22;45534;52.690;6.268;2022-12-24T07:46:39;8.80;99.90
59660;DHT22;45534;52.690;6.268;2022-12-24T07:49:05;8.80;99.90
59660;DHT22;45534;52.690;6.268;2022-12-24T07:51:30;8.80;99.90
59660;DHT22;45534;52.690;6.268;2022-12-24T07:53:56;8.80;99.90
59660;DHT22;45534;52.690;6.268;2022-12-24T07:56:22;8.80;99.90
59660;DHT22;45534;52.690;6.268;2022-12-24T07:58:49;8.80;99.90
59660;DHT22;45534;52.690;6.268;2022-12-24T08:01:15;8.80;99.90
59660;DHT22;45534;52.690;6.268;2022-12-24T08:03:41;8.90;99.90
59660;DHT22;45534;52.690;6.268;2022-12-24T08:06:07;8.90;99.90
59660;DHT22;45534;52.690;6.268;2022-12-24T08:08:33;8.90;99.90
59660;DHT22;45534;52.690;6.268;2022-12-24T08:11:03;8.90;99.90
59660;DHT22;45534;52.690;6.268;2022-12-24T08:13:29;8.90;99.90
59660;DHT22;45534;52.690;6.268;2022-12-24T08:15:55;8.90;99.90
59660;DHT22;45534;52.690;6.268;2022-12-24T08:18:21;8.90;99.90
59660;DHT22;45534;52.690;6.268;2022-12-24T08:20:47;8.90;99.90
59660;DHT22;45534;52.690;6.268;2022-12-24T08:23:12;9.00;99.90
59660;DHT22;45534;52.690;6.268;2022-12-24T08:25:42;9.00;99.90
59660;DHT22;45534;52.690;6.268;2022-12-24T08:28:08;9.00;99.90
59660;DHT22;45534;52.690;6.268;2022-12-24T08:30:34;9.00;99.90
59660;DHT22;45534;52.690;6.268;2022-12-24T08:33:00;9.10;99.90
59660;DHT22;45534;52.690;6.268;2022-12-24T08:35:26;9.10;99.90
59660;DHT22;45534;52.690;6.268;2022-12-24T08:37:52;9.20;99.90
59660;DHT22;45534;52.690;6.268;2022-12-24T08:40:18;9.10;99.90
59660;DHT22;45534;52.690;6.268;2022-12-24T08:42:43;9.20;99.90
59660;DHT22;45534;52.690;6.268;2022-12-24T08:45:10;9.20;99.90
59660;DHT22;45534;52.690;6.268;2022-12-24T08:47:36;9.20;99.90
59660;DHT22;45534;52.690;6.268;2022-12-24T08:50:05;9.20;99.90
59660;DHT22;45534;52.690;6.268;2022-12-24T08:52:32;9.30;99.90
59660;DHT22;45534;52.690;6.268;2022-12-24T08:54:57;9.30;99.90
59660;DHT22;45534;52.690;6.268;2022-12-24T08:57:23;9.30;99.90
59660;DHT22;45534;52.690;6.268;2022-12-24T08:59:49;9.30;99.90
59660;DHT22;45534;52.690;6.268;2022-12-24T09:02:14;9.40;99.90
59660;DHT22;45534;52.690;6.268;2022-12-24T09:04:40;9.40;99.90
59660;DHT22;45534;52.690;6.268;2022-12-24T09:07:07;9.40;99.90
59660;DHT22;45534;52.690;6.268;2022-12-24T09:09:33;9.40;99.90
59660;DHT22;45534;52.690;6.268;2022-12-24T09:11:58;9.50;99.90
59660;DHT22;45534;52.690;6.268;2022-12-24T09:14:24;9.40;99.90
59660;DHT22;45534;52.690;6.268;2022-12-24T09:16:50;9.50;99.90
59660;DHT22;45534;52.690;6.268;2022-12-24T09:19:15;9.40;99.90
59660;DHT22;45534;52.690;6.268;2022-12-24T09:21:41;9.40;99.90
59660;DHT22;45534;52.690;6.268;2022-12-24T09:24:07;9.40;99.90
59660;DHT22;45534;52.690;6.268;2022-12-24T09:26:33;9.40;99.90
59660;DHT22;45534;52.690;6.268;2022-12-24T09:29:01;9.40;99.90
59660;DHT22;45534;52.690;6.268;2022-12-24T09:31:27;9.40;99.90
59660;DHT22;45534;52.690;6.268;2022-12-24T09:33:53;9.40;99.90
59660;DHT22;45534;52.690;6.268;2022-12-24T09:36:20;9.40;99.90
59660;DHT22;45534;52.690;6.268;2022-12-24T09:38:46;9.40;99.90
59660;DHT22;45534;52.690;6.268;2022-12-24T09:43:53;9.40;99.90
59660;DHT22;45534;52.690;6.268;2022-12-24T09:46:34;9.40;99.90
59660;DHT22;45534;52.690;6.268;2022-12-24T09:49:15;9.40;99.90
59660;DHT22;45534;52.690;6.268;2022-12-24T09:51:57;9.40;99.90
59660;DHT22;45534;52.690;6.268;2022-12-24T09:54:30;9.40;99.90
59660;DHT22;45534;52.690;6.268;2022-12-24T09:57:12;9.40;99.90
59660;DHT22;45534;52.690;6.268;2022-12-24T09:59:42;9.40;99.90
59660;DHT22;45534;52.690;6.268;2022-12-24T10:02:11;9.40;99.90
59660;DHT22;45534;52.690;6.268;2022-12-24T10:04:37;9.40;99.90
59660;DHT22;45534;52.690;6.268;2022-12-24T10:10:20;9.50;99.90
59660;DHT22;45534;52.690;6.268;2022-12-24T10:13:09;9.50;99.90
59660;DHT22;45534;52.690;6.268;2022-12-24T10:16:02;9.50;99.90
59660;DHT22;45534;52.690;6.268;2022-12-24T10:18:47;9.50;99.90
59660;DHT22;45534;52.690;6.268;2022-12-24T10:26:52;9.60;99.90
59660;DHT22;45534;52.690;6.268;2022-12-24T10:29:31;9.60;99.90
59660;DHT22;45534;52.690;6.268;2022-12-24T10:34:39;9.70;99.90
59660;DHT22;45534;52.690;6.268;2022-12-24T10:37:06;9.70;99.90
59660;DHT22;45534;52.690;6.268;2022-12-24T10:39:35;9.70;99.90
59660;DHT22;45534;52.690;6.268;2022-12-24T10:42:01;9.80;99.90
59660;DHT22;45534;52.690;6.268;2022-12-24T10:44:31;9.80;99.90
59660;DHT22;45534;52.690;6.268;2022-12-24T10:46:57;9.80;99.90
59660;DHT22;45534;52.690;6.268;2022-12-24T10:49:39;9.80;99.90
59660;DHT22;45534;52.690;6.268;2022-12-24T10:52:14;9.80;99.90
59660;DHT22;45534;52.690;6.268;2022-12-24T10:55:07;9.80;99.90
59660;DHT22;45534;52.690;6.268;2022-12-24T10:57:34;9.80;99.90
59660;DHT22;45534;52.690;6.268;2022-12-24T11:00:00;9.80;99.90
59660;DHT22;45534;52.690;6.268;2022-12-24T11:02:36;9.80;99.90
59660;DHT22;45534;52.690;6.268;2022-12-24T11:05:26;9.80;99.90
59660;DHT22;45534;52.690;6.268;2022-12-24T11:08:04;9.70;99.90
59660;DHT22;45534;52.690;6.268;2022-12-24T11:10:30;9.80;99.90
59660;DHT22;45534;52.690;6.268;2022-12-24T11:12:57;9.80;99.90
59660;DHT22;45534;52.690;6.268;2022-12-24T11:15:33;9.80;99.90
59660;DHT22;45534;52.690;6.268;2022-12-24T11:18:04;9.80;99.90
59660;DHT22;45534;52.690;6.268;2022-12-24T11:20:32;9.80;99.90
59660;DHT22;45534;52.690;6.268;2022-12-24T11:23:00;9.80;99.90
59660;DHT22;45534;52.690;6.268;2022-12-24T11:25:31;9.80;99.90
59660;DHT22;45534;52.690;6.268;2022-12-24T11:28:19;9.80;99.90
59660;DHT22;45534;52.690;6.268;2022-12-24T11:31:18;9.80;99.90
59660;DHT22;45534;52.690;6.268;2022-12-24T11:33:47;9.90;99.90
59660;DHT22;45534;52.690;6.268;2022-12-24T11:36:13;9.90;99.90
59660;DHT22;45534;52.690;6.268;2022-12-24T11:38:40;9.90;99.90
59660;DHT22;45534;52.690;6.268;2022-12-24T11:41:09;9.90;99.90
59660;DHT22;45534;52.690;6.268;2022-12-24T11:43:44;9.90;99.90
59660;DHT22;45534;52.690;6.268;2022-12-24T11:49:29;9.90;99.90
59660;DHT22;45534;52.690;6.268;2022-12-24T11:55:06;10.00;99.90
59660;DHT22;45534;52.690;6.268;2022-12-24T11:58:06;10.00;99.90
59660;DHT22;45534;52.690;6.268;2022-12-24T12:00:38;10.00;99.90
59660;DHT22;45534;52.690;6.268;2022-12-24T12:03:17;10.00;99.90
59660;DHT22;45534;52.690;6.268;2022-12-24T12:05:46;10.00;99.90
59660;DHT22;45534;52.690;6.268;2022-12-24T12:08:17;10.00;99.90
59660;DHT22;45534;52.690;6.268;2022-12-24T12:10:45;10.10;99.90
59660;DHT22;45534;52.690;6.268;2022-12-24T12:13:16;10.10;99.90
59660;DHT22;45534;52.690;6.268;2022-12-24T12:15:58;10.10;99.90
59660;DHT22;45534;52.690;6.268;2022-12-24T12:18:33;10.20;99.90
59660;DHT22;45534;52.690;6.268;2022-12-24T12:21:08;10.20;99.90
59660;DHT22;45534;52.690;6.268;2022-12-24T12:29:21;10.30;99.90
59660;DHT22;45534;52.690;6.268;2022-12-24T12:31:54;10.40;99.90
59660;DHT22;45534;52.690;6.268;2022-12-24T12:34:49;10.40;99.90
59660;DHT22;45534;52.690;6.268;2022-12-24T12:37:23;10.40;99.90
59660;DHT22;45534;52.690;6.268;2022-12-24T12:39:53;10.40;99.90
59660;DHT22;45534;52.690;6.268;2022-12-24T12:42:36;10.30;99.90
59660;DHT22;45534;52.690;6.268;2022-12-24T12:45:30;10.30;99.90
59660;DHT22;45534;52.690;6.268;2022-12-24T12:50:57;10.30;99.90
59660;DHT22;45534;52.690;6.268;2022-12-24T12:56:31;10.20;99.90
59660;DHT22;45534;52.690;6.268;2022-12-24T12:59:13;10.10;99.90
59660;DHT22;45534;52.690;6.268;2022-12-24T13:05:07;10.00;99.90
59660;DHT22;45534;52.690;6.268;2022-12-24T13:11:02;10.00;99.90
59660;DHT22;45534;52.690;6.268;2022-12-24T13:21:44;10.40;99.90
59660;DHT22;45534;52.690;6.268;2022-12-24T13:24:17;10.30;99.90
59660;DHT22;45534;52.690;6.268;2022-12-24T13:27:16;10.30;99.90
59660;DHT22;45534;52.690;6.268;2022-12-24T13:35:00;10.10;99.90
59660;DHT22;45534;52.690;6.268;2022-12-24T13:53:16;10.00;99.90
59660;DHT22;45534;52.690;6.268;2022-12-24T13:56:02;10.00;99.90
59660;DHT22;45534;52.690;6.268;2022-12-24T13:58:30;10.00;99.90
59660;DHT22;45534;52.690;6.268;2022-12-24T14:00:59;9.90;99.90
59660;DHT22;45534;52.690;6.268;2022-12-24T14:03:39;9.90;99.90
59660;DHT22;45534;52.690;6.268;2022-12-24T14:06:10;9.90;99.90
59660;DHT22;45534;52.690;6.268;2022-12-24T14:08:46;9.90;99.90
59660;DHT22;45534;52.690;6.268;2022-12-24T14:11:28;9.80;99.90
59660;DHT22;45534;52.690;6.268;2022-12-24T14:16:41;9.70;99.90
59660;DHT22;45534;52.690;6.268;2022-12-24T14:19:14;9.70;99.90
59660;DHT22;45534;52.690;6.268;2022-12-24T14:22:01;9.70;99.90
59660;DHT22;45534;52.690;6.268;2022-12-24T14:24:37;9.70;99.90
59660;DHT22;45534;52.690;6.268;2022-12-24T14:27:14;9.70;99.90
59660;DHT22;45534;52.690;6.268;2022-12-24T14:29:51;9.70;99.90
59660;DHT22;45534;52.690;6.268;2022-12-24T14:32:19;9.60;99.90
59660;DHT22;45534;52.690;6.268;2022-12-24T14:34:45;9.60;99.90
59660;DHT22;45534;52.690;6.268;2022-12-24T14:37:12;9.60;99.90
59660;DHT22;45534;52.690;6.268;2022-12-24T14:39:47;9.50;99.90
59660;DHT22;45534;52.690;6.268;2022-12-24T14:53:09;9.30;99.90
59660;DHT22;45534;52.690;6.268;2022-12-24T14:55:45;9.30;99.90
59660;DHT22;45534;52.690;6.268;2022-12-24T14:58:35;9.30;99.90
59660;DHT22;45534;52.690;6.268;2022-12-24T15:01:27;9.20;99.90
59660;DHT22;45534;52.690;6.268;2022-12-24T15:06:32;9.10;99.90
59660;DHT22;45534;52.690;6.268;2022-12-24T15:08:59;9.10;99.90
59660;DHT22;45534;52.690;6.268;2022-12-24T15:11:25;9.00;99.90
59660;DHT22;45534;52.690;6.268;2022-12-24T15:13:56;9.00;99.90
59660;DHT22;45534;52.690;6.268;2022-12-24T15:16:32;8.90;99.90
59660;DHT22;45534;52.690;6.268;2022-12-24T15:19:02;8.90;99.90
59660;DHT22;45534;52.690;6.268;2022-12-24T15:21:31;8.90;99.90
59660;DHT22;45534;52.690;6.268;2022-12-24T15:23:58;8.80;99.90
59660;DHT22;45534;52.690;6.268;2022-12-24T15:28:52;8.70;99.90
59660;DHT22;45534;52.690;6.268;2022-12-24T15:31:20;8.60;99.90
59660;DHT22;45534;52.690;6.268;2022-12-24T15:33:48;8.60;99.90
59660;DHT22;45534;52.690;6.268;2022-12-24T15:36:17;8.50;99.90
59660;DHT22;45534;52.690;6.268;2022-12-24T15:38:51;8.40;99.90
59660;DHT22;45534;52.690;6.268;2022-12-24T15:41:21;8.40;99.90
59660;DHT22;45534;52.690;6.268;2022-12-24T15:43:50;8.30;99.90
59660;DHT22;45534;52.690;6.268;2022-12-24T15:46:22;8.20;99.90
59660;DHT22;45534;52.690;6.268;2022-12-24T15:48:49;8.20;99.90
59660;DHT22;45534;52.690;6.268;2022-12-24T15:51:25;8.10;99.90
59660;DHT22;45534;52.690;6.268;2022-12-24T15:54:04;8.00;99.90
59660;DHT22;45534;52.690;6.268;2022-12-24T15:59:26;7.90;99.90
59660;DHT22;45534;52.690;6.268;2022-12-24T16:01:53;7.80;99.90
59660;DHT22;45534;52.690;6.268;2022-12-24T16:04:24;7.80;99.90
59660;DHT22;45534;52.690;6.268;2022-12-24T16:06:52;7.70;99.90
59660;DHT22;45534;52.690;6.268;2022-12-24T16:09:43;7.70;99.90
59660;DHT22;45534;52.690;6.268;2022-12-24T16:12:21;7.70;99.90
59660;DHT22;45534;52.690;6.268;2022-12-24T16:14:54;7.60;99.90
59660;DHT22;45534;52.690;6.268;2022-12-24T16:17:24;7.60;99.90
59660;DHT22;45534;52.690;6.268;2022-12-24T16:19:54;7.60;99.90
59660;DHT22;45534;52.690;6.268;2022-12-24T16:22:21;7.60;99.90
59660;DHT22;45534;52.690;6.268;2022-12-24T16:24:58;7.60;99.90
59660;DHT22;45534;52.690;6.268;2022-12-24T16:27:24;7.50;99.90
59660;DHT22;45534;52.690;6.268;2022-12-24T16:29:50;7.50;99.90
59660;DHT22;45534;52.690;6.268;2022-12-24T16:32:36;7.50;99.90
59660;DHT22;45534;52.690;6.268;2022-12-24T16:35:04;7.50;99.90
59660;DHT22;45534;52.690;6.268;2022-12-24T16:37:30;7.40;99.90
59660;DHT22;45534;52.690;6.268;2022-12-24T16:39:56;7.40;99.90
59660;DHT22;45534;52.690;6.268;2022-12-24T16:42:23;7.40;99.90
59660;DHT22;45534;52.690;6.268;2022-12-24T16:45:28;7.40;99.90
59660;DHT22;45534;52.690;6.268;2022-12-24T16:47:58;7.30;99.90
59660;DHT22;45534;52.690;6.268;2022-12-24T16:50:24;7.30;99.90
59660;DHT22;45534;52.690;6.268;2022-12-24T16:52:50;7.30;99.90
59660;DHT22;45534;52.690;6.268;2022-12-24T16:55:16;7.30;99.90
59660;DHT22;45534;52.690;6.268;2022-12-24T16:57:42;7.20;99.90
59660;DHT22;45534;52.690;6.268;2022-12-24T17:02:39;7.10;99.90
59660;DHT22;45534;52.690;6.268;2022-12-24T17:05:05;7.00;99.90
59660;DHT22;45534;52.690;6.268;2022-12-24T17:07:30;7.00;99.90
59660;DHT22;45534;52.690;6.268;2022-12-24T17:09:56;6.90;99.90
59660;DHT22;45534;52.690;6.268;2022-12-24T17:12:22;6.80;99.90
59660;DHT22;45534;52.690;6.268;2022-12-24T17:14:47;6.80;99.90
59660;DHT22;45534;52.690;6.268;2022-12-24T17:17:24;6.70;99.90
59660;DHT22;45534;52.690;6.268;2022-12-24T17:19:50;6.60;99.90
59660;DHT22;45534;52.690;6.268;2022-12-24T17:22:16;6.50;99.90
59660;DHT22;45534;52.690;6.268;2022-12-24T17:24:42;6.40;99.90
59660;DHT22;45534;52.690;6.268;2022-12-24T17:27:08;6.40;99.90
59660;DHT22;45534;52.690;6.268;2022-12-24T17:29:33;6.40;99.90
59660;DHT22;45534;52.690;6.268;2022-12-24T17:31:59;6.30;99.90
59660;DHT22;45534;52.690;6.268;2022-12-24T17:34:25;6.20;99.90
59660;DHT22;45534;52.690;6.268;2022-12-24T17:36:51;6.10;99.90
59660;DHT22;45534;52.690;6.268;2022-12-24T17:39:16;6.00;99.90
59660;DHT22;45534;52.690;6.268;2022-12-24T17:41:42;6.00;99.90
59660;DHT22;45534;52.690;6.268;2022-12-24T17:44:11;5.90;99.90
59660;DHT22;45534;52.690;6.268;2022-12-24T17:46:37;5.90;99.90
59660;DHT22;45534;52.690;6.268;2022-12-24T17:49:03;5.80;99.90
59660;DHT22;45534;52.690;6.268;2022-12-24T17:51:29;5.80;99.90
59660;DHT22;45534;52.690;6.268;2022-12-24T17:53:58;5.70;99.90
59660;DHT22;45534;52.690;6.268;2022-12-24T17:56:24;5.70;99.90
59660;DHT22;45534;52.690;6.268;2022-12-24T17:58:50;5.70;99.90
59660;DHT22;45534;52.690;6.268;2022-12-24T18:01:18;5.60;99.90
59660;DHT22;45534;52.690;6.268;2022-12-24T18:03:45;5.60;99.90